createdAt,value
2022-12-22T00:00:29.277Z,20.17
2022-12-22T00:03:35.132Z,21.13
2022-12-22T00:06:20.456Z,19.65
2022-12-22T00:09:06.183Z,20.30
2022-12-22T00:11:51.460Z,20.25
2022-12-22T00:14:36.724Z,20.75
2022-12-22T00:17:22.004Z,20.63
2022-12-22T00:22:56.478Z,20.48
2022-12-22T00:25:41.897Z,18.58
2022-12-22T00:28:31.964Z,19.95
2022-12-22T00:31:17.786Z,19.13
2022-12-22T00:34:03.065Z,19.40
2022-12-22T00:36:48.877Z,21.27
2022-12-22T00:39:34.066Z,19.52
2022-12-22T00:42:19.979Z,19.27
2022-12-22T00:45:05.230Z,18.38
2022-12-22T00:47:50.861Z,19.88
2022-12-22T00:50:36.245Z,17.92
2022-12-22T00:53:21.876Z,19.58
2022-12-22T00:56:07.247Z,19.52
2022-12-22T00:58:52.852Z,18.52
2022-12-22T01:01:38.262Z,19.42
2022-12-22T01:07:09.394Z,19.67
2022-12-22T01:09:55.191Z,18.73
2022-12-22T01:12:42.048Z,18.00
2022-12-22T01:15:37.958Z,17.27
2022-12-22T01:18:23.776Z,17.15
2022-12-22T01:21:09.524Z,18.48
2022-12-22T01:23:55.409Z,17.92
2022-12-22T01:26:40.948Z,18.50
2022-12-22T01:29:26.403Z,17.02
2022-12-22T01:32:11.997Z,16.20
2022-12-22T01:34:57.506Z,17.10
2022-12-22T01:37:43.180Z,16.02
2022-12-22T01:40:42.275Z,14.95
2022-12-22T01:43:41.073Z,14.90
2022-12-22T01:46:59.878Z,15.43
2022-12-22T01:50:00.310Z,13.80
2022-12-22T01:52:56.189Z,15.15
2022-12-22T01:58:36.080Z,13.50
2022-12-22T02:01:21.869Z,13.25
2022-12-22T02:04:07.132Z,13.48
2022-12-22T02:06:59.963Z,12.80
2022-12-22T02:10:09.462Z,13.95
2022-12-22T02:12:57.781Z,13.00
2022-12-22T02:16:04.172Z,12.68
2022-12-22T02:18:57.593Z,12.93
2022-12-22T02:21:43.575Z,13.02
2022-12-22T02:24:37.406Z,12.85
2022-12-22T02:27:22.644Z,12.60
2022-12-22T02:30:11.516Z,13.57
2022-12-22T02:33:02.314Z,12.05
2022-12-22T02:36:03.165Z,12.13
2022-12-22T02:39:00.954Z,12.75
2022-12-22T02:41:57.445Z,12.43
2022-12-22T02:45:01.778Z,12.23
2022-12-22T02:47:55.876Z,12.52
2022-12-22T02:50:51.949Z,12.52
2022-12-22T02:53:37.645Z,13.20
2022-12-22T02:56:26.995Z,13.20
2022-12-22T02:59:12.843Z,12.30
2022-12-22T03:01:59.289Z,12.55
2022-12-22T03:04:45.199Z,12.90
2022-12-22T03:07:30.992Z,12.93
2022-12-22T03:10:16.736Z,13.90
2022-12-22T03:13:02.111Z,16.17
2022-12-22T03:15:47.876Z,14.25
2022-12-22T03:18:33.204Z,14.43
2022-12-22T03:21:18.964Z,14.40
2022-12-22T03:24:04.300Z,15.80
2022-12-22T03:26:33.463Z,15.85
2022-12-22T03:29:00.179Z,14.90
2022-12-22T03:31:27.775Z,14.77
2022-12-22T03:33:54.794Z,16.48
2022-12-22T03:36:21.893Z,15.50
2022-12-22T03:38:48.615Z,15.50
2022-12-22T03:41:34.251Z,16.25
2022-12-22T03:44:19.753Z,17.40
2022-12-22T03:46:46.898Z,15.82
2022-12-22T03:49:13.919Z,18.23
2022-12-22T03:51:44.604Z,16.13
2022-12-22T03:54:12.851Z,17.45
2022-12-22T03:56:40.000Z,18.77
2022-12-22T03:59:06.738Z,16.48
2022-12-22T04:01:34.389Z,17.20
2022-12-22T04:04:01.211Z,16.58
2022-12-22T04:06:28.235Z,17.90
2022-12-22T04:08:55.163Z,17.38
2022-12-22T04:11:40.649Z,17.52
2022-12-22T04:14:07.548Z,18.25
2022-12-22T04:16:34.593Z,17.45
2022-12-22T04:19:01.417Z,17.70
2022-12-22T04:21:28.489Z,17.85
2022-12-22T04:23:55.391Z,17.60
2022-12-22T04:26:23.438Z,18.05
2022-12-22T04:28:50.789Z,17.40
2022-12-22T04:31:18.015Z,18.45
2022-12-22T04:33:45.122Z,19.13
2022-12-22T04:36:12.329Z,18.73
2022-12-22T04:38:39.192Z,18.98
2022-12-22T04:41:06.417Z,18.92
2022-12-22T04:43:33.344Z,18.38
2022-12-22T04:46:00.488Z,20.27
2022-12-22T04:48:28.253Z,19.33
2022-12-22T04:50:56.751Z,18.65
2022-12-22T04:53:23.621Z,19.02
2022-12-22T04:56:00.929Z,19.17
2022-12-22T04:58:28.012Z,19.60
2022-12-22T05:00:55.296Z,19.50
2022-12-22T05:03:22.232Z,20.00
2022-12-22T05:05:49.355Z,20.42
2022-12-22T05:08:16.096Z,18.23
2022-12-22T05:10:43.154Z,19.50
2022-12-22T05:13:09.990Z,19.50
2022-12-22T05:15:37.901Z,18.27
2022-12-22T05:18:04.829Z,18.40
2022-12-22T05:20:32.137Z,18.77
2022-12-22T05:22:58.978Z,18.98
2022-12-22T05:25:29.853Z,18.60
2022-12-22T05:27:59.801Z,18.33
2022-12-22T05:30:27.207Z,17.77
2022-12-22T05:32:54.018Z,18.05
2022-12-22T05:35:21.061Z,19.00
2022-12-22T05:37:47.891Z,18.50
2022-12-22T05:40:14.913Z,17.88
2022-12-22T05:42:41.624Z,18.27
2022-12-22T05:45:16.756Z,18.42
2022-12-22T05:47:47.355Z,18.38
2022-12-22T05:50:15.778Z,19.38
2022-12-22T05:52:42.656Z,23.00
2022-12-22T05:55:10.012Z,20.13
2022-12-22T05:57:36.823Z,20.58
2022-12-22T06:00:05.878Z,20.02
2022-12-22T06:02:32.877Z,20.23
2022-12-22T06:05:00.179Z,18.40
2022-12-22T06:07:26.900Z,19.63
2022-12-22T06:09:53.912Z,19.15
2022-12-22T06:12:20.728Z,18.92
2022-12-22T06:14:47.810Z,17.08
2022-12-22T06:17:14.521Z,19.08
2022-12-22T06:19:41.560Z,18.83
2022-12-22T06:22:08.366Z,18.27
2022-12-22T06:24:35.388Z,19.00
2022-12-22T06:27:02.126Z,19.08
2022-12-22T06:29:29.172Z,18.50
2022-12-22T06:31:55.911Z,18.13
2022-12-22T06:34:23.003Z,19.05
2022-12-22T06:36:49.904Z,19.42
2022-12-22T06:39:17.176Z,19.83
2022-12-22T06:42:02.521Z,19.23
2022-12-22T06:44:29.587Z,19.90
2022-12-22T06:46:56.407Z,19.65
2022-12-22T06:49:23.451Z,21.77
2022-12-22T06:51:50.163Z,22.27
2022-12-22T06:54:20.865Z,20.70
2022-12-22T06:59:19.436Z,22.52
2022-12-22T07:01:46.243Z,21.67
2022-12-22T07:04:19.691Z,22.17
2022-12-22T07:06:47.758Z,24.25
2022-12-22T07:09:14.846Z,23.27
2022-12-22T07:11:41.675Z,23.45
2022-12-22T07:14:08.825Z,23.23
2022-12-22T07:16:35.653Z,23.92
2022-12-22T07:19:02.752Z,22.95
2022-12-22T07:21:29.553Z,23.05
2022-12-22T07:23:56.549Z,24.33
2022-12-22T07:26:23.264Z,23.52
2022-12-22T07:28:50.269Z,24.10
2022-12-22T07:31:17.726Z,23.80
2022-12-22T07:33:44.872Z,24.35
2022-12-22T07:36:12.689Z,23.52
2022-12-22T07:38:41.508Z,24.08
2022-12-22T07:41:28.945Z,23.50
2022-12-22T07:43:57.326Z,23.70
2022-12-22T07:46:24.544Z,24.77
2022-12-22T07:49:10.367Z,25.33
2022-12-22T07:51:38.312Z,23.13
2022-12-22T07:54:05.493Z,23.38
2022-12-22T07:56:32.305Z,23.63
2022-12-22T07:58:59.606Z,23.05
2022-12-22T08:01:26.457Z,24.40
2022-12-22T08:03:53.575Z,23.75
2022-12-22T08:06:20.511Z,24.33
2022-12-22T08:08:47.517Z,24.48
2022-12-22T08:11:14.358Z,23.52
2022-12-22T08:13:43.431Z,23.55
2022-12-22T08:16:11.643Z,22.63
2022-12-22T08:18:38.990Z,24.27
2022-12-22T08:21:06.166Z,26.48
2022-12-22T08:23:33.428Z,28.90
2022-12-22T08:26:07.906Z,29.33
2022-12-22T08:28:37.231Z,28.45
2022-12-22T08:31:04.140Z,28.63
2022-12-22T08:33:31.209Z,33.05
2022-12-22T08:36:02.690Z,34.58
2022-12-22T08:38:33.053Z,36.03
2022-12-22T08:40:59.766Z,36.95
2022-12-22T08:43:26.836Z,36.13
2022-12-22T08:45:53.614Z,36.80
2022-12-22T08:48:20.628Z,36.75
2022-12-22T08:50:47.322Z,35.17
2022-12-22T08:53:30.112Z,34.28
2022-12-22T08:56:01.149Z,36.15
2022-12-22T08:58:28.206Z,36.15
2022-12-22T09:00:54.959Z,36.03
2022-12-22T09:03:22.053Z,34.03
2022-12-22T09:05:48.822Z,34.17
2022-12-22T09:08:15.848Z,33.88
2022-12-22T09:10:43.968Z,33.47
2022-12-22T09:13:11.031Z,30.88
2022-12-22T09:15:37.852Z,29.73
2022-12-22T09:18:04.924Z,29.85
2022-12-22T09:20:31.966Z,30.38
2022-12-22T09:23:00.161Z,27.98
2022-12-22T09:25:27.486Z,27.42
2022-12-22T09:27:55.099Z,26.30
2022-12-22T09:30:21.850Z,26.05
2022-12-22T09:32:48.892Z,26.15
2022-12-22T09:35:15.694Z,24.00
2022-12-22T09:37:42.731Z,26.38
2022-12-22T09:40:10.087Z,23.80
2022-12-22T09:42:37.908Z,23.85
2022-12-22T09:45:05.303Z,23.20
2022-12-22T09:47:40.172Z,21.92
2022-12-22T09:50:11.984Z,21.48
2022-12-22T09:52:49.155Z,20.05
2022-12-22T09:55:25.935Z,18.88
2022-12-22T09:57:56.575Z,18.58
2022-12-22T10:00:28.320Z,18.95
2022-12-22T10:03:31.296Z,18.13
2022-12-22T10:06:28.425Z,16.38
2022-12-22T10:08:55.790Z,16.38
2022-12-22T10:11:22.653Z,16.17
2022-12-22T10:13:49.761Z,16.35
2022-12-22T10:16:21.907Z,15.43
2022-12-22T10:19:16.058Z,16.73
2022-12-22T10:21:46.936Z,15.23
2022-12-22T10:24:33.148Z,16.45
2022-12-22T10:26:59.890Z,16.52
2022-12-22T10:29:26.977Z,16.38
2022-12-22T10:32:05.003Z,19.48
2022-12-22T10:34:32.162Z,20.98
2022-12-22T10:37:00.331Z,20.25
2022-12-22T10:39:29.298Z,24.95
2022-12-22T10:42:08.522Z,24.10
2022-12-22T10:44:37.256Z,30.15
2022-12-22T10:47:20.449Z,32.45
2022-12-22T10:49:48.933Z,32.47
2022-12-22T10:52:31.035Z,35.40
2022-12-22T10:55:18.466Z,35.25
2022-12-22T10:57:45.261Z,35.72
2022-12-22T11:00:23.587Z,34.08
2022-12-22T11:03:11.921Z,35.22
2022-12-22T11:05:39.136Z,37.22
2022-12-22T11:08:18.987Z,43.00
2022-12-22T11:11:12.529Z,49.15
2022-12-22T11:13:39.374Z,59.88
2022-12-22T11:16:19.874Z,64.05
2022-12-22T11:18:52.632Z,60.55
2022-12-22T11:21:28.860Z,60.03
2022-12-22T11:24:07.702Z,56.90
2022-12-22T11:26:58.036Z,54.70
2022-12-22T11:30:04.735Z,50.72
2022-12-22T11:32:53.971Z,42.40
2022-12-22T11:35:33.007Z,39.55
2022-12-22T11:38:22.106Z,37.78
2022-12-22T11:40:53.460Z,34.25
2022-12-22T11:44:22.221Z,29.98
2022-12-22T11:46:58.101Z,28.83
2022-12-22T11:49:38.079Z,27.98
2022-12-22T11:52:10.838Z,25.80
2022-12-22T11:55:11.802Z,25.30
2022-12-22T11:57:49.306Z,24.63
2022-12-22T12:00:17.326Z,23.65
2022-12-22T12:03:09.008Z,22.63
2022-12-22T12:06:30.277Z,23.17
2022-12-22T12:09:26.037Z,22.00
2022-12-22T12:12:09.492Z,20.13
2022-12-22T12:14:46.271Z,20.30
2022-12-22T12:17:20.930Z,20.02
2022-12-22T12:20:00.503Z,20.75
2022-12-22T12:22:32.419Z,19.50
2022-12-22T12:25:03.593Z,19.90
2022-12-22T12:27:42.956Z,20.15
2022-12-22T12:33:37.018Z,23.13
2022-12-22T12:36:33.104Z,22.80
2022-12-22T12:39:08.014Z,24.95
2022-12-22T12:42:01.376Z,35.33
2022-12-22T12:44:31.471Z,53.80
2022-12-22T12:47:04.913Z,68.85
2022-12-22T12:49:38.637Z,81.73
2022-12-22T12:52:09.203Z,93.80
2022-12-22T12:54:40.279Z,104.22
2022-12-22T12:57:07.186Z,106.22
2022-12-22T12:59:40.299Z,104.53
2022-12-22T13:02:29.726Z,105.68
2022-12-22T13:05:13.903Z,101.65
2022-12-22T13:08:09.561Z,103.15
2022-12-22T13:10:44.619Z,94.90
2022-12-22T13:13:23.910Z,88.80
2022-12-22T13:16:00.308Z,84.85
2022-12-22T13:18:49.729Z,82.90
2022-12-22T13:24:25.908Z,71.18
2022-12-22T13:26:55.353Z,64.93
2022-12-22T13:29:22.156Z,59.70
2022-12-22T13:31:57.905Z,55.25
2022-12-22T13:37:30.423Z,42.80
2022-12-22T13:40:10.489Z,39.45
2022-12-22T13:42:39.379Z,39.42
2022-12-22T13:45:12.146Z,37.00
2022-12-22T13:47:42.978Z,30.60
2022-12-22T13:50:20.011Z,29.42
2022-12-22T13:52:47.111Z,28.52
2022-12-22T13:55:15.644Z,26.48
2022-12-22T13:57:42.774Z,26.52
2022-12-22T14:00:27.803Z,26.63
2022-12-22T14:02:55.019Z,24.05
2022-12-22T14:05:22.107Z,23.25
2022-12-22T14:07:59.150Z,22.13
2022-12-22T14:10:28.250Z,21.42
2022-12-22T14:12:55.325Z,20.08
2022-12-22T14:15:22.172Z,21.92
2022-12-22T14:17:52.842Z,21.08
2022-12-22T14:20:35.720Z,21.98
2022-12-22T14:23:13.692Z,20.13
2022-12-22T14:25:41.505Z,19.98
2022-12-22T14:28:33.492Z,18.60
2022-12-22T14:31:08.467Z,18.83
2022-12-22T14:36:19.366Z,18.58
2022-12-22T14:38:48.565Z,19.98
2022-12-22T14:41:42.905Z,18.33
2022-12-22T14:44:24.703Z,19.13
2022-12-22T14:47:20.580Z,17.58
2022-12-22T14:52:33.260Z,18.73
2022-12-22T14:55:00.374Z,17.77
2022-12-22T14:57:38.478Z,19.02
2022-12-22T15:00:08.315Z,17.67
2022-12-22T15:02:40.594Z,17.20
2022-12-22T15:05:15.901Z,17.58
2022-12-22T15:10:40.232Z,17.63
2022-12-22T15:13:11.655Z,16.70
2022-12-22T15:15:38.695Z,17.80
2022-12-22T15:18:05.766Z,15.52
2022-12-22T15:20:38.972Z,17.08
2022-12-22T15:23:18.579Z,17.33
2022-12-22T15:25:45.874Z,17.38
2022-12-22T15:28:12.863Z,17.45
2022-12-22T15:30:40.017Z,16.33
2022-12-22T15:33:14.351Z,17.17
2022-12-22T15:35:41.524Z,17.02
2022-12-22T15:38:24.434Z,16.15
2022-12-22T15:40:51.682Z,17.48
2022-12-22T15:43:54.091Z,18.38
2022-12-22T15:46:06.245Z,19.00
2022-12-22T15:48:34.673Z,19.45
2022-12-22T15:51:05.979Z,19.10
2022-12-22T15:53:33.139Z,18.00
2022-12-22T15:56:00.325Z,20.08
2022-12-22T15:58:29.297Z,22.63
2022-12-22T16:00:56.640Z,22.88
2022-12-22T16:03:23.612Z,23.52
2022-12-22T16:05:52.789Z,23.48
2022-12-22T16:08:22.921Z,29.52
2022-12-22T16:10:49.955Z,29.38
2022-12-22T16:13:16.850Z,31.50
2022-12-22T16:15:43.943Z,34.53
2022-12-22T16:18:11.138Z,36.72
2022-12-22T16:20:41.515Z,40.22
2022-12-22T16:23:16.292Z,43.70
2022-12-22T16:25:43.936Z,51.42
2022-12-22T16:28:19.064Z,54.03
2022-12-22T16:33:13.362Z,62.83
2022-12-22T16:35:40.602Z,67.18
2022-12-22T16:38:08.842Z,74.78
2022-12-22T16:40:46.744Z,81.45
2022-12-22T16:46:17.108Z,112.00
2022-12-22T16:48:49.722Z,127.32
2022-12-22T16:51:25.441Z,138.55
2022-12-22T16:53:52.493Z,155.43
2022-12-22T16:56:22.509Z,152.07
2022-12-22T16:58:49.415Z,148.57
2022-12-22T17:01:40.747Z,154.32
2022-12-22T17:04:13.638Z,146.38
2022-12-22T17:06:41.036Z,140.80
2022-12-22T17:09:11.884Z,132.73
2022-12-22T17:11:38.989Z,131.32
2022-12-22T17:14:31.337Z,134.80
2022-12-22T17:16:58.679Z,124.10
2022-12-22T17:19:25.512Z,118.22
2022-12-22T17:21:53.403Z,113.00
2022-12-22T17:24:25.910Z,103.45
2022-12-22T17:26:55.124Z,97.65
2022-12-22T17:29:23.609Z,86.60
2022-12-22T17:31:51.998Z,81.60
2022-12-22T17:34:18.942Z,78.25
2022-12-22T17:36:46.993Z,70.80
2022-12-22T17:39:14.630Z,67.47
2022-12-22T17:41:41.715Z,60.08
2022-12-22T17:44:19.679Z,58.67
2022-12-22T17:46:47.476Z,56.55
2022-12-22T17:49:14.755Z,56.28
2022-12-22T17:51:41.989Z,55.03
2022-12-22T17:54:18.119Z,53.63
2022-12-22T17:56:45.243Z,52.63
2022-12-22T17:59:12.232Z,52.08
2022-12-22T18:01:40.281Z,50.15
2022-12-22T18:04:10.208Z,44.10
2022-12-22T18:06:39.645Z,41.30
2022-12-22T18:09:06.891Z,40.63
2022-12-22T18:11:34.469Z,40.70
2022-12-22T18:14:01.326Z,37.22
2022-12-22T18:16:29.765Z,34.00
2022-12-22T18:18:56.739Z,34.50
2022-12-22T18:21:24.307Z,31.38
2022-12-22T18:23:51.385Z,33.25
2022-12-22T18:26:28.997Z,31.17
2022-12-22T18:28:55.921Z,31.48
2022-12-22T18:31:23.610Z,29.42
2022-12-22T18:33:51.054Z,27.23
2022-12-22T18:36:30.291Z,28.05
2022-12-22T18:38:57.336Z,27.55
2022-12-22T18:41:24.752Z,30.08
2022-12-22T18:43:51.547Z,30.80
2022-12-22T18:46:19.082Z,31.73
2022-12-22T18:48:45.942Z,30.50
2022-12-22T18:51:21.850Z,28.65
2022-12-22T18:53:51.658Z,30.27
2022-12-22T18:56:18.884Z,28.60
2022-12-22T18:58:46.287Z,27.98
2022-12-22T19:01:24.046Z,27.60
2022-12-22T19:03:51.551Z,26.42
2022-12-22T19:06:20.514Z,25.48
2022-12-22T19:08:48.258Z,26.63
2022-12-22T19:11:16.497Z,26.60
2022-12-22T19:13:45.240Z,25.65
2022-12-22T19:16:17.934Z,27.88
2022-12-22T19:18:44.874Z,26.33
2022-12-22T19:21:16.217Z,26.65
2022-12-22T19:23:43.999Z,25.95
2022-12-22T19:26:24.578Z,28.95
2022-12-22T19:28:52.636Z,30.42
2022-12-22T19:31:25.286Z,29.40
2022-12-22T19:33:52.199Z,30.48
2022-12-22T19:36:26.841Z,35.10
2022-12-22T19:39:02.766Z,34.03
2022-12-22T19:41:31.366Z,34.97
2022-12-22T19:43:58.184Z,36.97
2022-12-22T19:46:25.755Z,36.22
2022-12-22T19:48:52.618Z,33.90
2022-12-22T19:51:19.721Z,34.15
2022-12-22T19:53:46.511Z,30.05
2022-12-22T19:56:22.910Z,33.20
2022-12-22T19:58:50.169Z,32.80
2022-12-22T20:01:17.289Z,30.98
2022-12-22T20:03:44.429Z,29.52
2022-12-22T20:06:11.717Z,29.50
2022-12-22T20:08:38.591Z,28.17
2022-12-22T20:11:14.933Z,27.38
2022-12-22T20:13:42.080Z,27.15
2022-12-22T20:16:16.381Z,25.65
2022-12-22T20:18:43.601Z,25.42
2022-12-22T20:21:13.460Z,27.10
2022-12-22T20:23:40.343Z,24.58
2022-12-22T20:26:12.060Z,24.58
2022-12-22T20:28:39.541Z,25.00
2022-12-22T20:31:07.517Z,23.48
2022-12-22T20:33:35.051Z,23.17
2022-12-22T20:36:02.606Z,25.00
2022-12-22T20:38:37.801Z,23.02
2022-12-22T20:41:06.225Z,23.73
2022-12-22T20:43:33.235Z,22.58
2022-12-22T20:46:07.342Z,21.73
2022-12-22T20:49:04.526Z,22.55
2022-12-22T20:51:33.024Z,24.13
2022-12-22T20:54:00.084Z,25.50
2022-12-22T20:56:30.207Z,31.50
2022-12-22T20:58:57.667Z,30.73
2022-12-22T21:01:24.953Z,33.97
2022-12-22T21:03:52.158Z,35.72
2022-12-22T21:06:27.413Z,35.50
2022-12-22T21:08:55.376Z,35.90
2022-12-22T21:11:22.673Z,34.90
2022-12-22T21:13:49.907Z,35.78
2022-12-22T21:16:18.659Z,32.97
2022-12-22T21:18:45.693Z,35.80
2022-12-22T21:21:12.962Z,31.15
2022-12-22T21:23:39.866Z,33.45
2022-12-22T21:26:36.185Z,30.52
2022-12-22T21:29:06.633Z,28.63
2022-12-22T21:31:33.916Z,28.38
2022-12-22T21:34:00.789Z,27.63
2022-12-22T21:36:29.196Z,27.27
2022-12-22T21:38:58.711Z,24.50
2022-12-22T21:41:44.310Z,24.95
2022-12-22T21:44:12.671Z,26.33
2022-12-22T21:46:44.011Z,26.13
2022-12-22T21:49:19.946Z,24.85
2022-12-22T21:51:47.848Z,23.85
2022-12-22T21:54:15.043Z,21.60
2022-12-22T21:56:42.154Z,24.05
2022-12-22T21:59:08.969Z,22.40
2022-12-22T22:01:36.164Z,20.30
2022-12-22T22:04:03.152Z,21.20
2022-12-22T22:06:30.313Z,21.02
2022-12-22T22:08:57.158Z,19.83
2022-12-22T22:11:25.432Z,20.45
2022-12-22T22:13:52.912Z,20.50
2022-12-22T22:16:20.098Z,19.65
2022-12-22T22:18:47.503Z,18.70
2022-12-22T22:21:15.417Z,20.25
2022-12-22T22:23:42.344Z,19.02
2022-12-22T22:26:10.171Z,17.83
2022-12-22T22:28:37.017Z,17.67
2022-12-22T22:31:09.291Z,18.55
2022-12-22T22:33:36.206Z,17.90
2022-12-22T22:36:07.512Z,19.23
2022-12-22T22:38:34.509Z,16.77
2022-12-22T22:41:01.661Z,17.50
2022-12-22T22:43:28.460Z,16.55
2022-12-22T22:45:55.525Z,18.40
2022-12-22T22:48:22.766Z,18.30
2022-12-22T22:50:50.491Z,20.05
2022-12-22T22:53:17.248Z,17.88
2022-12-22T22:55:44.369Z,19.83
2022-12-22T22:58:11.669Z,17.80
2022-12-22T23:00:39.134Z,19.10
2022-12-22T23:03:06.049Z,18.38
2022-12-22T23:05:33.375Z,17.92
2022-12-22T23:08:00.145Z,18.83
2022-12-22T23:10:27.231Z,18.10
2022-12-22T23:12:54.605Z,19.67
2022-12-22T23:15:21.722Z,17.67
2022-12-22T23:17:52.433Z,18.58
2022-12-22T23:20:19.534Z,19.55
2022-12-22T23:22:46.310Z,19.17
2022-12-22T23:25:14.449Z,19.27
2022-12-22T23:27:41.153Z,18.30
2022-12-22T23:30:08.934Z,17.80
2022-12-22T23:32:35.705Z,17.13
2022-12-22T23:35:02.772Z,17.73
2022-12-22T23:37:29.552Z,17.58
2022-12-22T23:40:10.790Z,19.67
2022-12-22T23:42:43.426Z,18.42
2022-12-22T23:45:10.712Z,18.65
2022-12-22T23:47:37.471Z,18.13
2022-12-22T23:50:04.822Z,16.98
2022-12-22T23:52:31.599Z,18.02
2022-12-22T23:54:58.716Z,18.05
2022-12-22T23:57:25.508Z,18.80
2022-12-22T23:59:52.579Z,18.58
